Tropical Cyclones
[Index]
Main Index Home Page Stock Weather Photos Extreme Storms Discussion Storm News and Storm Chasing Reports Tropical Cyclones / Hurricanes / Typhoons Weather Data and Links Wild Fires / Bushfires Weather Observation Techniques Weather Picture Catalogue Tornado Pictures and Reports Stock Video Footage and DVDs for sale
Season 1967-1968 Tropical Cyclone 196768_13 Track Map
Season 1967-1968 Summaries: [BoM-AU] [JTWC-AU] [JTWC-SIO] [JTWC-SPAC] [JTWC-SH]
<<- Previous TC | BoM 1967-1968 Season | Next TC ->>

click for intensity scale information  Lat/long Grid: Show Hide

 Date Labels: Show Hide

Bureau of Meteorology Tropical Cyclone Data

Name: 196768_13
Number: 433 / 196768_13

12 Feb 1968 23:00 UTC to 16 Feb 1968 20:00 UTC

    date/time    lat    long    hPa   cat  kts
1968-02-12 23   16.7   138.5   1002                     
1968-02-13 02   16.7   138.6   1002                     
1968-02-13 05   16.6   138.6   1000                     
1968-02-13 08   16.5   138.8   1000                     
1968-02-13 11   16.4   139.0   1000                     
1968-02-13 14   16.3   139.2   1000                     
1968-02-13 17   16.3   139.4   1000                     
1968-02-13 20   16.2   139.6    999                     
1968-02-13 23   16.2   139.8    999                     
1968-02-14 02   16.3   140.2    999                     
1968-02-14 05   16.4   140.4    998                     
1968-02-14 08   16.6   140.6    998                     
1968-02-14 11   16.8   140.9    997                     
1968-02-14 14   17.1   141.1    997                     
1968-02-14 17   17.4   141.4    997                     
1968-02-14 20   17.7   141.7    997                     
1968-02-14 23   18.2   142.0    997                     
1968-02-15 02   18.5   142.3    997                     
1968-02-15 05   19.0   142.6    996                     
1968-02-15 08   19.5   142.8    997                     
1968-02-15 11   20.1   142.9    997                     
1968-02-15 14   20.7   142.7    998                     
1968-02-15 17   21.2   142.4    999                     
1968-02-15 20   21.5   142.0    999                     
1968-02-15 23   21.6   141.7   1000                     
1968-02-16 02   21.8   141.4   1000                     
1968-02-16 05   21.9   141.2    998                     
1968-02-16 08   22.0   140.9    999                     
1968-02-16 11   22.1   140.7   1002                     
1968-02-16 14   22.2   140.4   1002                     
1968-02-16 17   22.2   140.3   1002                     
1968-02-16 20   22.3   139.8   1002                     
Winds are 10-min average.

Tropical cyclone tracks developed by Michael Bath using data from the Bureau of Meteorology and Google Maps.


[Australian Severe Weather index] [Copyright Notice] [Email Contacts] [Search This Site] [Privacy Policy]
Document: tropical_cyclone_196768_13.htm Updated: 30 May 2013